createdAt,value
2019-03-04T00:00:51.300Z,8.70
2019-03-04T00:01:51.318Z,8.80
2019-03-04T00:02:51.283Z,8.30
2019-03-04T00:03:51.272Z,10.10
2019-03-04T00:04:51.290Z,7.70
2019-03-04T00:05:51.278Z,7.30
2019-03-04T00:06:51.245Z,9.70
2019-03-04T00:07:51.227Z,6.20
2019-03-04T00:08:51.216Z,7.80
2019-03-04T00:09:51.226Z,7.30
2019-03-04T00:10:51.200Z,7.90
2019-03-04T00:11:51.240Z,6.20
2019-03-04T00:12:51.171Z,6.50
2019-03-04T00:13:51.169Z,8.00
2019-03-04T00:14:51.157Z,7.60
2019-03-04T00:15:51.147Z,6.70
2019-03-04T00:16:51.179Z,7.40
2019-03-04T00:17:51.121Z,7.00
2019-03-04T00:18:51.110Z,6.00
2019-03-04T00:19:51.120Z,7.90
2019-03-04T00:20:51.095Z,8.40
2019-03-04T00:21:51.106Z,9.20
2019-03-04T00:22:51.076Z,8.70
2019-03-04T00:23:51.069Z,7.80
2019-03-04T00:24:51.053Z,8.40
2019-03-04T00:25:51.840Z,6.30
2019-03-04T00:26:51.047Z,10.50
2019-03-04T00:27:51.024Z,8.10
2019-03-04T00:28:51.013Z,8.30
2019-03-04T00:29:50.993Z,7.70
2019-03-04T00:30:51.005Z,7.20
2019-03-04T00:31:51.010Z,7.90
2019-03-04T00:32:50.972Z,8.10
2019-03-04T00:33:50.960Z,9.50
2019-03-04T00:34:50.949Z,6.60
2019-03-04T00:35:50.933Z,8.20
2019-03-04T00:36:50.950Z,6.60
2019-03-04T00:37:50.916Z,9.50
2019-03-04T00:38:50.896Z,8.20
2019-03-04T00:39:50.893Z,7.80
2019-03-04T00:40:50.875Z,6.70
2019-03-04T00:41:50.872Z,6.90
2019-03-04T00:42:50.888Z,8.40
2019-03-04T00:43:50.861Z,7.40
2019-03-04T00:44:50.833Z,6.40
2019-03-04T00:45:50.828Z,8.40
2019-03-04T00:46:50.815Z,7.00
2019-03-04T00:47:50.841Z,7.90
2019-03-04T00:48:50.809Z,6.60
2019-03-04T00:49:50.782Z,8.20
2019-03-04T00:50:50.768Z,8.30
2019-03-04T00:51:50.763Z,7.10
2019-03-04T00:52:50.747Z,7.50
2019-03-04T00:53:50.763Z,7.90
2019-03-04T00:54:50.732Z,6.30
2019-03-04T00:55:50.730Z,7.70
2019-03-04T00:56:50.718Z,7.10
2019-03-04T00:57:50.709Z,6.10
2019-03-04T00:58:50.708Z,6.40
2019-03-04T00:59:50.682Z,7.80
2019-03-04T01:00:50.667Z,6.30
2019-03-04T01:01:50.662Z,5.80
2019-03-04T01:02:50.640Z,7.10
2019-03-04T01:03:50.651Z,9.10
2019-03-04T01:04:50.619Z,7.40
2019-03-04T01:05:50.622Z,8.00
2019-03-04T01:06:50.605Z,5.60
2019-03-04T01:07:50.623Z,9.30
2019-03-04T01:08:50.591Z,6.60
2019-03-04T01:09:50.594Z,5.60
2019-03-04T01:10:50.557Z,7.00
2019-03-04T01:11:50.546Z,7.00
2019-03-04T01:12:50.559Z,7.00
2019-03-04T01:13:50.536Z,8.40
2019-03-04T01:14:50.548Z,6.40
2019-03-04T01:15:50.502Z,7.70
2019-03-04T01:16:50.489Z,9.00
2019-03-04T01:17:50.490Z,7.70
2019-03-04T01:18:50.525Z,6.30
2019-03-04T01:19:50.498Z,7.30
2019-03-04T01:20:50.463Z,8.00
2019-03-04T01:21:50.444Z,7.80
2019-03-04T01:22:50.429Z,7.30
2019-03-04T01:23:51.538Z,8.50
2019-03-04T01:24:50.441Z,7.50
2019-03-04T01:25:50.408Z,5.90
2019-03-04T01:26:50.397Z,6.00
2019-03-04T01:27:50.379Z,8.20
2019-03-04T01:28:50.369Z,8.00
2019-03-04T01:29:50.353Z,7.30
2019-03-04T01:30:50.366Z,8.30
2019-03-04T01:31:50.360Z,8.10
2019-03-04T01:32:50.359Z,6.10
2019-03-04T01:33:50.313Z,7.50
2019-03-04T01:34:50.319Z,9.90
2019-03-04T01:35:50.292Z,6.30
2019-03-04T01:36:50.299Z,7.80
2019-03-04T01:37:50.295Z,6.50
2019-03-04T01:38:50.264Z,7.90
2019-03-04T01:39:50.304Z,8.00
2019-03-04T01:40:50.245Z,8.20
2019-03-04T01:41:50.234Z,8.10
2019-03-04T01:42:50.226Z,6.40
2019-03-04T01:43:50.227Z,8.50
2019-03-04T01:44:50.195Z,6.30
2019-03-04T01:45:50.222Z,5.90
2019-03-04T01:46:50.220Z,7.40
2019-03-04T01:47:50.166Z,7.00
2019-03-04T01:48:50.174Z,6.40
2019-03-04T01:49:50.168Z,6.90
2019-03-04T01:50:50.140Z,6.90
2019-03-04T01:51:50.145Z,6.40
2019-03-04T01:52:50.118Z,7.40
2019-03-04T01:53:50.104Z,6.80
2019-03-04T01:54:51.085Z,7.50
2019-03-04T01:55:50.082Z,5.30
2019-03-04T01:56:50.085Z,6.90
2019-03-04T01:57:50.070Z,8.10
2019-03-04T01:58:50.059Z,7.00
2019-03-04T01:59:50.051Z,7.60
2019-03-04T02:00:50.042Z,7.40
2019-03-04T02:01:50.050Z,7.00
2019-03-04T02:02:50.011Z,8.30
2019-03-04T02:03:50.001Z,6.90
2019-03-04T02:04:49.998Z,7.90
2019-03-04T02:05:49.990Z,7.70
2019-03-04T02:06:49.994Z,7.70
2019-03-04T02:07:49.952Z,7.80
2019-03-04T02:08:49.941Z,7.90
2019-03-04T02:09:49.941Z,8.00
2019-03-04T02:10:49.923Z,7.60
2019-03-04T02:11:49.918Z,7.40
2019-03-04T02:12:49.933Z,8.20
2019-03-04T02:13:51.411Z,8.50
2019-03-04T02:14:49.877Z,7.70
2019-03-04T02:15:49.866Z,7.50
2019-03-04T02:16:49.859Z,7.60
2019-03-04T02:17:49.869Z,6.50
2019-03-04T02:18:49.839Z,7.80
2019-03-04T02:19:49.822Z,8.00
2019-03-04T02:20:49.813Z,8.80
2019-03-04T02:21:49.822Z,8.50
2019-03-04T02:22:49.827Z,7.50
2019-03-04T02:23:49.802Z,7.30
2019-03-04T02:24:49.775Z,9.60
2019-03-04T02:25:49.760Z,8.50
2019-03-04T02:26:49.748Z,9.50
2019-03-04T02:27:49.746Z,7.20
2019-03-04T02:28:49.747Z,10.50
2019-03-04T02:29:49.737Z,8.10
2019-03-04T02:30:49.750Z,8.20
2019-03-04T02:31:49.701Z,8.00
2019-03-04T02:32:49.692Z,7.30
2019-03-04T02:33:49.692Z,7.90
2019-03-04T02:34:49.669Z,7.40
2019-03-04T02:35:49.678Z,8.70
2019-03-04T02:36:49.650Z,6.70
2019-03-04T02:37:49.629Z,7.30
2019-03-04T02:38:49.653Z,7.50
2019-03-04T02:39:49.609Z,9.10
2019-03-04T02:40:49.622Z,7.70
2019-03-04T02:41:49.615Z,7.00
2019-03-04T02:42:49.598Z,7.20
2019-03-04T02:43:49.574Z,5.70
2019-03-04T02:44:49.597Z,7.50
2019-03-04T02:45:49.549Z,8.60
2019-03-04T02:46:49.540Z,7.10
2019-03-04T02:47:49.543Z,7.20
2019-03-04T02:48:49.514Z,8.10
2019-03-04T02:49:49.516Z,6.30
2019-03-04T02:50:49.542Z,7.30
2019-03-04T02:51:49.494Z,6.10
2019-03-04T02:52:49.484Z,7.40
2019-03-04T02:53:49.491Z,7.00
2019-03-04T02:54:49.455Z,7.10
2019-03-04T02:55:49.469Z,7.40
2019-03-04T02:56:49.446Z,8.00
2019-03-04T02:57:49.419Z,7.30
2019-03-04T02:58:49.414Z,6.40
2019-03-04T02:59:49.396Z,8.40
2019-03-04T03:00:49.433Z,7.70
2019-03-04T03:01:49.386Z,6.60
2019-03-04T03:02:49.383Z,9.50
2019-03-04T03:03:49.367Z,8.10
2019-03-04T03:04:49.366Z,8.50
2019-03-04T03:05:49.335Z,6.90
2019-03-04T03:06:49.338Z,10.20
2019-03-04T03:07:49.322Z,6.20
2019-03-04T03:08:49.321Z,8.20
2019-03-04T03:09:49.299Z,9.40
2019-03-04T03:10:49.303Z,8.00
2019-03-04T03:11:49.266Z,7.90
2019-03-04T03:12:49.260Z,6.10
2019-03-04T03:13:49.260Z,7.20
2019-03-04T03:14:49.248Z,6.50
2019-03-04T03:15:49.258Z,6.30
2019-03-04T03:16:49.271Z,8.20
2019-03-04T03:17:49.203Z,7.10
2019-03-04T03:18:49.191Z,6.20
2019-03-04T03:19:49.182Z,7.30
2019-03-04T03:20:49.229Z,7.20
2019-03-04T03:21:49.190Z,7.90
2019-03-04T03:22:49.175Z,6.90
2019-03-04T03:23:49.141Z,8.30
2019-03-04T03:24:49.131Z,7.60
2019-03-04T03:25:49.134Z,6.30
2019-03-04T03:26:49.133Z,7.00
2019-03-04T03:27:49.111Z,7.80
2019-03-04T03:28:49.108Z,7.60
2019-03-04T03:29:51.862Z,8.90
2019-03-04T03:30:49.067Z,6.40
2019-03-04T03:31:49.080Z,6.00
2019-03-04T03:32:49.051Z,7.00
2019-03-04T03:33:49.052Z,7.80
2019-03-04T03:34:49.081Z,7.20
2019-03-04T03:35:49.020Z,6.30
2019-03-04T03:36:49.036Z,7.50
2019-03-04T03:37:49.003Z,6.70
2019-03-04T03:38:48.981Z,6.50
2019-03-04T03:39:48.983Z,8.90
2019-03-04T03:40:48.965Z,4.90
2019-03-04T03:41:48.981Z,7.80
2019-03-04T03:42:48.944Z,7.90
2019-03-04T03:43:48.950Z,7.30
2019-03-04T03:44:48.920Z,7.70
2019-03-04T03:45:48.916Z,8.20
2019-03-04T03:46:48.927Z,7.30
2019-03-04T03:47:48.891Z,7.70
2019-03-04T03:48:48.885Z,6.40
2019-03-04T03:49:48.870Z,6.90
2019-03-04T03:50:48.873Z,6.30
2019-03-04T03:51:48.848Z,5.80
2019-03-04T03:52:48.852Z,8.60
2019-03-04T03:53:48.859Z,7.10
2019-03-04T03:54:48.822Z,5.80
2019-03-04T03:55:48.804Z,7.90
2019-03-04T03:56:48.786Z,7.10
2019-03-04T03:57:48.793Z,6.90
2019-03-04T03:58:48.771Z,8.10
2019-03-04T03:59:48.821Z,8.50
2019-03-04T04:00:48.758Z,7.60
2019-03-04T04:01:48.739Z,6.50
2019-03-04T04:02:48.728Z,7.20
2019-03-04T04:03:48.716Z,7.10
2019-03-04T04:04:48.710Z,6.70
2019-03-04T04:05:48.717Z,8.70
2019-03-04T04:06:48.697Z,7.40
2019-03-04T04:07:48.703Z,7.30
2019-03-04T04:08:48.667Z,9.10
2019-03-04T04:09:48.676Z,8.50
2019-03-04T04:10:48.636Z,7.30
2019-03-04T04:11:48.648Z,8.50
2019-03-04T04:12:48.630Z,9.80
2019-03-04T04:13:48.607Z,7.70
2019-03-04T04:14:48.626Z,8.20
2019-03-04T04:15:48.593Z,8.30
2019-03-04T04:16:48.608Z,8.50
2019-03-04T04:17:48.573Z,8.90
2019-03-04T04:18:48.561Z,6.80
2019-03-04T04:19:48.546Z,8.70
2019-03-04T04:20:48.557Z,6.60
2019-03-04T04:21:48.524Z,8.20
2019-03-04T04:22:48.519Z,6.10
2019-03-04T04:23:48.505Z,6.90
2019-03-04T04:24:48.504Z,7.30
2019-03-04T04:25:48.508Z,7.40
2019-03-04T04:26:48.465Z,7.00
2019-03-04T04:27:48.462Z,8.30
2019-03-04T04:28:48.453Z,7.70
2019-03-04T04:29:48.439Z,8.80
2019-03-04T04:30:48.448Z,7.50
2019-03-04T04:31:48.412Z,6.40
2019-03-04T04:32:49.070Z,6.60
2019-03-04T04:33:48.401Z,7.10
2019-03-04T04:34:48.388Z,9.10
2019-03-04T04:35:48.398Z,8.20
2019-03-04T04:36:48.393Z,6.80
2019-03-04T04:37:48.352Z,8.00
2019-03-04T04:38:48.341Z,5.80
2019-03-04T04:39:48.335Z,8.30
2019-03-04T04:40:48.321Z,7.80
2019-03-04T04:41:48.317Z,6.70
2019-03-04T04:42:48.324Z,6.90
2019-03-04T04:43:48.288Z,8.20
2019-03-04T04:44:48.282Z,7.10
2019-03-04T04:45:48.276Z,7.20
2019-03-04T04:46:48.263Z,7.40
2019-03-04T04:47:48.275Z,5.70
2019-03-04T04:48:48.245Z,8.40
2019-03-04T04:49:48.239Z,7.70
2019-03-04T04:50:49.204Z,7.90
2019-03-04T04:51:48.202Z,7.70
2019-03-04T04:52:48.213Z,7.10
2019-03-04T04:53:48.192Z,7.10
2019-03-04T04:54:48.197Z,7.70
2019-03-04T04:55:48.166Z,8.50
2019-03-04T04:56:48.165Z,6.90
2019-03-04T04:57:48.137Z,7.60
2019-03-04T04:58:48.149Z,6.60
2019-03-04T04:59:48.142Z,8.90
2019-03-04T05:00:48.110Z,9.10
2019-03-04T05:01:48.099Z,6.20
2019-03-04T05:02:48.088Z,7.90
2019-03-04T05:03:48.100Z,5.30
2019-03-04T05:04:48.083Z,6.70
2019-03-04T05:05:48.057Z,5.90
2019-03-04T05:06:48.050Z,7.80
2019-03-04T05:07:48.046Z,7.30
2019-03-04T05:08:48.050Z,8.00
2019-03-04T05:09:48.009Z,6.60
2019-03-04T05:10:47.998Z,7.20
2019-03-04T05:11:47.985Z,7.80
2019-03-04T05:12:47.981Z,7.00
2019-03-04T05:13:48.002Z,6.40
2019-03-04T05:14:47.965Z,6.80
2019-03-04T05:15:47.953Z,8.00
2019-03-04T05:16:47.932Z,6.00
2019-03-04T05:17:47.928Z,7.50
2019-03-04T05:18:47.929Z,5.30
2019-03-04T05:19:47.936Z,6.80
2019-03-04T05:20:47.897Z,7.10
2019-03-04T05:21:47.882Z,7.50
2019-03-04T05:22:47.884Z,6.90
2019-03-04T05:23:47.864Z,7.90
2019-03-04T05:24:47.867Z,7.50
2019-03-04T05:25:47.845Z,7.70
2019-03-04T05:26:47.836Z,8.20
2019-03-04T05:27:47.821Z,6.90
2019-03-04T05:28:47.813Z,7.00
2019-03-04T05:29:48.089Z,7.80
2019-03-04T05:30:47.791Z,6.40
2019-03-04T05:31:47.837Z,8.80
2019-03-04T05:32:47.770Z,7.30
2019-03-04T05:33:47.752Z,6.30
2019-03-04T05:34:47.760Z,7.40
2019-03-04T05:35:47.767Z,7.70
2019-03-04T05:36:47.742Z,6.30
2019-03-04T05:37:47.716Z,7.40
2019-03-04T05:38:47.705Z,7.60
2019-03-04T05:39:47.700Z,6.80
2019-03-04T05:40:47.705Z,8.30
2019-03-04T05:41:47.688Z,9.00
2019-03-04T05:42:47.661Z,7.20
2019-03-04T05:43:47.658Z,7.00
2019-03-04T05:44:47.640Z,6.60
2019-03-04T05:45:47.827Z,6.10
2019-03-04T05:46:47.726Z,5.40
2019-03-04T05:47:56.094Z,5.30
2019-03-04T05:48:47.614Z,7.50
2019-03-04T05:49:47.592Z,8.50
2019-03-04T05:50:47.579Z,6.40
2019-03-04T05:51:47.577Z,8.00
2019-03-04T05:52:47.549Z,7.20
2019-03-04T05:53:47.543Z,7.70
2019-03-04T05:54:47.549Z,9.60
2019-03-04T05:55:47.527Z,7.20
2019-03-04T05:56:47.529Z,6.60
2019-03-04T05:57:47.506Z,7.50
2019-03-04T05:58:48.500Z,8.00
2019-03-04T05:59:47.486Z,8.10
2019-03-04T06:00:56.631Z,6.30
2019-03-04T06:01:47.476Z,6.50
2019-03-04T06:02:47.442Z,5.90
2019-03-04T06:03:47.429Z,6.90
2019-03-04T06:04:47.427Z,6.70
2019-03-04T06:05:47.416Z,8.30
2019-03-04T06:06:47.433Z,8.30
2019-03-04T06:07:47.447Z,7.20
2019-03-04T06:08:47.383Z,7.10
2019-03-04T06:09:47.365Z,6.60
2019-03-04T06:10:47.358Z,7.40
2019-03-04T06:11:47.362Z,6.10
2019-03-04T06:12:47.354Z,8.80
2019-03-04T06:13:47.375Z,6.90
2019-03-04T06:14:47.320Z,6.60
2019-03-04T06:15:47.305Z,7.10
2019-03-04T06:16:47.722Z,7.70
2019-03-04T06:17:47.315Z,5.90
2019-03-04T06:18:47.280Z,5.80
2019-03-04T06:19:47.268Z,6.00
2019-03-04T06:20:47.257Z,7.30
2019-03-04T06:21:47.239Z,7.40
2019-03-04T06:22:47.254Z,6.00
2019-03-04T06:23:47.226Z,7.90
2019-03-04T06:24:47.215Z,6.80
2019-03-04T06:25:47.226Z,9.30
2019-03-04T06:26:47.196Z,6.40
2019-03-04T06:27:47.211Z,6.50
2019-03-04T06:28:47.173Z,6.50
2019-03-04T06:29:47.172Z,5.30
2019-03-04T06:30:49.236Z,7.00
2019-03-04T06:31:47.167Z,6.90
2019-03-04T06:32:47.133Z,6.60
2019-03-04T06:33:47.137Z,6.70
2019-03-04T06:34:47.110Z,6.40
2019-03-04T06:35:47.094Z,6.80
2019-03-04T06:36:47.086Z,5.50
2019-03-04T06:37:47.653Z,5.50
2019-03-04T06:38:47.106Z,7.10
2019-03-04T06:39:47.055Z,5.70
2019-03-04T06:40:47.053Z,7.10
2019-03-04T06:41:47.037Z,6.90
2019-03-04T06:42:47.018Z,5.90
2019-03-04T06:43:47.028Z,5.60
2019-03-04T06:44:46.996Z,5.30
2019-03-04T06:45:46.989Z,5.80
2019-03-04T06:46:46.981Z,5.90
2019-03-04T06:47:46.972Z,5.60
2019-03-04T06:48:46.988Z,6.30
2019-03-04T06:49:46.945Z,7.70
2019-03-04T06:50:46.942Z,5.50
2019-03-04T06:51:46.969Z,7.30
2019-03-04T06:52:46.918Z,6.60
2019-03-04T06:53:46.899Z,5.70
2019-03-04T06:54:46.921Z,5.30
2019-03-04T06:55:46.877Z,6.30
2019-03-04T06:56:46.863Z,5.80
2019-03-04T06:57:46.861Z,6.60
2019-03-04T06:58:46.853Z,6.30
2019-03-04T06:59:46.873Z,5.60
2019-03-04T07:00:46.867Z,5.60
2019-03-04T07:01:46.813Z,5.00
2019-03-04T07:02:46.804Z,5.00
2019-03-04T07:03:46.812Z,6.40
2019-03-04T07:04:46.817Z,7.80
2019-03-04T07:05:46.788Z,6.10
2019-03-04T07:06:46.797Z,4.50
2019-03-04T07:07:46.769Z,6.20
2019-03-04T07:08:46.776Z,5.60
2019-03-04T07:09:46.802Z,5.70
2019-03-04T07:10:46.744Z,5.60
2019-03-04T07:11:46.722Z,6.60
2019-03-04T07:12:46.712Z,8.00
2019-03-04T07:13:46.693Z,5.90
2019-03-04T07:14:46.710Z,7.20
2019-03-04T07:15:46.701Z,7.30
2019-03-04T07:16:46.694Z,5.20
2019-03-04T07:17:46.663Z,5.60
2019-03-04T07:18:46.638Z,7.30
2019-03-04T07:19:46.623Z,4.40
2019-03-04T07:20:46.779Z,5.00
2019-03-04T07:21:46.633Z,5.60
2019-03-04T07:22:48.442Z,4.40
2019-03-04T07:23:46.608Z,4.40
2019-03-04T07:24:46.573Z,4.80
2019-03-04T07:25:47.185Z,4.40
2019-03-04T07:26:46.576Z,4.20
2019-03-04T07:27:46.541Z,4.80
2019-03-04T07:28:46.530Z,7.00
2019-03-04T07:29:46.565Z,6.80
2019-03-04T07:30:46.515Z,5.30
2019-03-04T07:31:46.558Z,6.40
2019-03-04T07:32:46.491Z,6.50
2019-03-04T07:33:46.477Z,5.90
2019-03-04T07:34:46.475Z,5.40
2019-03-04T07:35:46.477Z,5.30
2019-03-04T07:36:46.489Z,4.90
2019-03-04T07:37:46.436Z,5.90
2019-03-04T07:38:46.426Z,5.70
2019-03-04T07:39:46.427Z,5.10
2019-03-04T07:40:46.409Z,5.60
2019-03-04T07:41:46.402Z,6.10
2019-03-04T07:42:46.694Z,5.00
2019-03-04T07:43:46.385Z,4.70
2019-03-04T07:44:46.362Z,6.40
2019-03-04T07:45:46.353Z,4.90
2019-03-04T07:46:46.337Z,5.30
2019-03-04T07:47:46.342Z,5.90
2019-03-04T07:48:46.323Z,4.00
2019-03-04T07:49:46.311Z,5.10
2019-03-04T07:50:46.304Z,4.60
2019-03-04T07:51:46.291Z,7.20
2019-03-04T07:52:46.297Z,6.00
2019-03-04T07:53:46.970Z,5.50
2019-03-04T07:54:46.260Z,5.60
2019-03-04T07:55:46.273Z,7.00
2019-03-04T07:56:46.281Z,5.50
2019-03-04T07:57:46.257Z,5.80
2019-03-04T07:58:46.217Z,6.90
2019-03-04T07:59:46.199Z,5.40
2019-03-04T08:00:46.190Z,6.90
2019-03-04T08:01:46.186Z,5.40
2019-03-04T08:02:46.179Z,5.20
2019-03-04T08:03:46.191Z,6.00
2019-03-04T08:04:46.168Z,4.90
2019-03-04T08:05:46.154Z,5.20
2019-03-04T08:06:46.223Z,6.10
2019-03-04T08:07:46.127Z,4.90
2019-03-04T08:08:46.147Z,5.90
2019-03-04T08:09:46.093Z,6.60
2019-03-04T08:10:46.085Z,4.90
2019-03-04T08:11:46.070Z,5.50
2019-03-04T08:12:46.066Z,5.30
2019-03-04T08:13:46.065Z,5.60
2019-03-04T08:14:46.061Z,5.30
2019-03-04T08:15:46.033Z,6.20
2019-03-04T08:16:46.027Z,6.00
2019-03-04T08:17:46.004Z,5.00
2019-03-04T08:18:46.005Z,5.70
2019-03-04T08:19:46.008Z,5.90
2019-03-04T08:20:45.977Z,6.30
2019-03-04T08:21:45.971Z,5.80
2019-03-04T08:22:45.958Z,6.70
2019-03-04T08:23:46.665Z,6.80
2019-03-04T08:24:45.959Z,4.90
2019-03-04T08:25:45.931Z,4.40
2019-03-04T08:26:45.922Z,4.30
2019-03-04T08:27:46.663Z,4.80
2019-03-04T08:28:45.891Z,4.00
2019-03-04T08:29:45.898Z,5.80
2019-03-04T08:30:45.865Z,4.90
2019-03-04T08:31:45.864Z,6.00
2019-03-04T08:32:45.838Z,5.80
2019-03-04T08:33:45.839Z,5.50
2019-03-04T08:34:45.847Z,4.10
2019-03-04T08:35:45.818Z,5.20
2019-03-04T08:36:45.811Z,5.10
2019-03-04T08:37:45.797Z,4.20
2019-03-04T08:38:45.782Z,4.20
2019-03-04T08:39:45.796Z,7.00
2019-03-04T08:40:45.767Z,5.00
2019-03-04T08:41:45.745Z,5.40
2019-03-04T08:42:45.791Z,5.70
2019-03-04T08:43:45.754Z,4.60
2019-03-04T08:44:46.223Z,5.30
2019-03-04T08:45:46.687Z,5.10
2019-03-04T08:46:45.711Z,5.80
2019-03-04T08:47:45.698Z,5.80
2019-03-04T08:48:45.687Z,4.70
2019-03-04T08:49:45.692Z,4.50
2019-03-04T08:50:45.660Z,4.60
2019-03-04T08:51:45.648Z,5.40
2019-03-04T08:52:45.631Z,4.40
2019-03-04T08:53:45.624Z,3.50
2019-03-04T08:54:45.614Z,4.60
2019-03-04T08:55:45.758Z,4.90
2019-03-04T08:56:45.586Z,5.60
2019-03-04T08:57:45.585Z,4.10
2019-03-04T08:58:45.594Z,6.30
2019-03-04T08:59:45.561Z,5.00
2019-03-04T09:00:45.578Z,5.30
2019-03-04T09:01:45.532Z,4.70
2019-03-04T09:02:45.525Z,4.50
2019-03-04T09:03:45.522Z,5.60
2019-03-04T09:04:45.545Z,4.00
2019-03-04T09:05:45.529Z,4.50
2019-03-04T09:06:45.509Z,3.60
2019-03-04T09:07:45.476Z,5.30
2019-03-04T09:08:45.467Z,5.60
2019-03-04T09:09:45.446Z,4.10
2019-03-04T09:10:45.440Z,6.30
2019-03-04T09:11:45.462Z,5.00
2019-03-04T09:12:45.429Z,5.90
2019-03-04T09:13:45.414Z,4.50
2019-03-04T09:14:45.397Z,5.20
2019-03-04T09:15:45.386Z,4.20
2019-03-04T09:16:45.376Z,4.10
2019-03-04T09:17:45.397Z,4.50
2019-03-04T09:18:45.373Z,3.80
2019-03-04T09:19:45.346Z,4.20
2019-03-04T09:20:45.335Z,4.30
2019-03-04T09:21:45.331Z,4.90
2019-03-04T09:22:45.332Z,3.80
2019-03-04T09:23:45.308Z,4.40
2019-03-04T09:24:45.291Z,4.60
2019-03-04T09:25:45.289Z,4.70
2019-03-04T09:26:45.278Z,5.10
2019-03-04T09:27:45.309Z,4.00
2019-03-04T09:28:45.245Z,3.60
2019-03-04T09:29:46.770Z,7.30
2019-03-04T09:30:45.229Z,5.10
2019-03-04T09:31:45.223Z,4.00
2019-03-04T09:32:45.242Z,5.50
2019-03-04T09:33:45.204Z,5.40
2019-03-04T09:34:45.177Z,4.80
2019-03-04T09:35:45.170Z,5.60
2019-03-04T09:36:45.157Z,3.70
2019-03-04T09:37:45.154Z,5.50
2019-03-04T09:38:45.169Z,5.80
2019-03-04T09:39:45.152Z,4.40
2019-03-04T09:40:45.125Z,4.80
2019-03-04T09:41:45.107Z,3.60
2019-03-04T09:42:45.094Z,4.60
2019-03-04T09:43:45.113Z,3.80
2019-03-04T09:44:45.100Z,3.90
2019-03-04T09:45:45.640Z,4.50
2019-03-04T09:46:45.053Z,5.60
2019-03-04T09:47:45.042Z,3.80
2019-03-04T09:48:45.054Z,5.50
2019-03-04T09:49:45.068Z,3.80
2019-03-04T09:50:45.015Z,5.40
2019-03-04T09:51:45.012Z,3.90
2019-03-04T09:52:44.997Z,5.20
2019-03-04T09:53:44.977Z,3.80
2019-03-04T09:54:44.968Z,5.60
2019-03-04T09:55:44.974Z,3.30
2019-03-04T09:56:44.943Z,3.50
2019-03-04T09:57:44.942Z,4.20
2019-03-04T09:58:44.929Z,4.50
2019-03-04T09:59:46.988Z,3.90
2019-03-04T10:00:44.900Z,4.30
2019-03-04T10:01:44.896Z,4.40
2019-03-04T10:02:44.886Z,4.50
2019-03-04T10:03:44.876Z,4.70
2019-03-04T10:04:44.895Z,4.20
2019-03-04T10:05:44.847Z,4.40
2019-03-04T10:06:44.839Z,3.90
2019-03-04T10:07:44.831Z,6.00
2019-03-04T10:08:44.816Z,5.70
2019-03-04T10:09:44.817Z,4.70
2019-03-04T10:10:44.824Z,5.10
2019-03-04T10:11:44.793Z,5.10
2019-03-04T10:12:44.781Z,5.10
2019-03-04T10:13:44.765Z,4.40
2019-03-04T10:14:44.750Z,5.60
2019-03-04T10:15:44.793Z,6.20
2019-03-04T10:16:44.751Z,5.10
2019-03-04T10:17:44.721Z,5.70
2019-03-04T10:18:44.708Z,3.90
2019-03-04T10:19:44.699Z,4.60
2019-03-04T10:20:44.727Z,5.20
2019-03-04T10:21:44.685Z,4.00
2019-03-04T10:22:44.673Z,3.70
2019-03-04T10:23:44.661Z,3.50
2019-03-04T10:24:44.653Z,4.50
2019-03-04T10:25:44.631Z,4.00
2019-03-04T10:26:44.641Z,4.70
2019-03-04T10:27:44.611Z,3.50
2019-03-04T10:28:44.601Z,4.30
2019-03-04T10:29:44.599Z,6.40
2019-03-04T10:30:44.606Z,3.80
2019-03-04T10:31:44.597Z,3.60
2019-03-04T10:32:44.560Z,6.20
2019-03-04T10:33:44.553Z,3.70
2019-03-04T10:34:44.543Z,4.90
2019-03-04T10:35:44.538Z,4.00
2019-03-04T10:36:44.546Z,4.20
2019-03-04T10:37:44.507Z,3.40
2019-03-04T10:38:44.490Z,3.60
2019-03-04T10:39:44.482Z,3.60
2019-03-04T10:40:44.475Z,4.90
2019-03-04T10:41:44.467Z,3.30
2019-03-04T10:42:44.476Z,4.00
2019-03-04T10:43:44.451Z,5.50
2019-03-04T10:44:44.445Z,3.40
2019-03-04T10:45:44.418Z,2.80
2019-03-04T10:46:45.406Z,4.00
2019-03-04T10:47:44.436Z,3.20
2019-03-04T10:48:44.406Z,3.30
2019-03-04T10:49:44.406Z,3.80
2019-03-04T10:50:44.363Z,4.00
2019-03-04T10:51:44.362Z,3.80
2019-03-04T10:52:44.350Z,3.20
2019-03-04T10:53:44.361Z,4.20
2019-03-04T10:54:44.328Z,2.50
2019-03-04T10:55:44.320Z,4.10
2019-03-04T10:56:44.309Z,4.10
2019-03-04T10:57:44.290Z,5.80
2019-03-04T10:58:44.314Z,3.00
2019-03-04T10:59:44.281Z,2.90
2019-03-04T11:00:44.265Z,4.00
2019-03-04T11:01:44.251Z,3.70
2019-03-04T11:02:44.241Z,3.40
2019-03-04T11:03:44.245Z,4.60
2019-03-04T11:04:44.216Z,3.10
2019-03-04T11:05:44.211Z,5.70
2019-03-04T11:06:44.206Z,3.00
2019-03-04T11:07:44.187Z,4.40
2019-03-04T11:08:44.207Z,3.90
2019-03-04T11:09:44.161Z,3.00
2019-03-04T11:10:44.157Z,4.90
2019-03-04T11:11:44.140Z,2.30
2019-03-04T11:12:44.132Z,3.70
2019-03-04T11:13:44.156Z,3.70
2019-03-04T11:14:44.115Z,2.30
2019-03-04T11:15:44.116Z,3.80
2019-03-04T11:16:44.091Z,3.40
2019-03-04T11:17:44.079Z,2.50
2019-03-04T11:18:44.086Z,3.40
2019-03-04T11:19:44.084Z,2.50
2019-03-04T11:20:44.051Z,3.10
2019-03-04T11:21:44.033Z,3.40
2019-03-04T11:22:44.028Z,2.60
2019-03-04T11:23:44.011Z,2.40
2019-03-04T11:24:44.019Z,3.60
2019-03-04T11:25:44.005Z,2.20
2019-03-04T11:26:43.992Z,2.70
2019-03-04T11:27:43.979Z,4.20
2019-03-04T11:28:43.964Z,2.00
2019-03-04T11:29:51.534Z,4.10
2019-03-04T11:30:43.936Z,1.70
2019-03-04T11:31:43.932Z,4.70
2019-03-04T11:32:43.923Z,2.60
2019-03-04T11:33:43.923Z,2.70
2019-03-04T11:34:43.926Z,1.90
2019-03-04T11:35:43.895Z,4.10
2019-03-04T11:36:43.904Z,1.30
2019-03-04T11:37:43.869Z,1.60
2019-03-04T11:38:43.862Z,1.80
2019-03-04T11:39:43.841Z,2.30
2019-03-04T11:40:43.856Z,2.00
2019-03-04T11:41:43.818Z,2.40
2019-03-04T11:42:43.815Z,2.80
2019-03-04T11:43:43.802Z,1.70
2019-03-04T11:44:43.796Z,1.90
2019-03-04T11:45:43.798Z,1.40
2019-03-04T11:46:43.769Z,1.50
2019-03-04T11:47:43.758Z,1.40
2019-03-04T11:48:43.741Z,1.80
2019-03-04T11:49:43.737Z,1.20
2019-03-04T11:50:43.747Z,1.40
2019-03-04T11:51:43.710Z,1.50
2019-03-04T11:52:43.698Z,1.70
2019-03-04T11:53:43.688Z,1.50
2019-03-04T11:54:43.678Z,1.30
2019-03-04T11:55:43.689Z,1.50
2019-03-04T11:56:43.668Z,2.10
2019-03-04T11:57:43.651Z,2.10
2019-03-04T11:58:43.642Z,1.60
2019-03-04T11:59:43.625Z,1.80
2019-03-04T12:00:43.640Z,1.10
2019-03-04T12:01:43.623Z,0.80
2019-03-04T12:02:43.595Z,1.40
2019-03-04T12:03:43.595Z,0.60
2019-03-04T12:04:43.593Z,0.80
2019-03-04T12:05:43.561Z,0.90
2019-03-04T12:06:43.584Z,1.10
2019-03-04T12:07:43.549Z,2.40
2019-03-04T12:08:43.539Z,1.70
2019-03-04T12:09:43.526Z,1.30
2019-03-04T12:10:43.515Z,1.00
2019-03-04T12:11:43.496Z,0.80
2019-03-04T12:12:43.502Z,1.10
2019-03-04T12:13:43.477Z,1.40
2019-03-04T12:14:43.467Z,1.90
2019-03-04T12:15:43.494Z,0.80
2019-03-04T12:16:43.483Z,0.70
2019-03-04T12:17:44.438Z,2.20
2019-03-04T12:18:43.459Z,1.30
2019-03-04T12:19:43.414Z,0.80
2019-03-04T12:20:43.404Z,1.90
2019-03-04T12:21:43.418Z,1.60
2019-03-04T12:22:43.388Z,0.70
2019-03-04T12:23:43.373Z,2.10
2019-03-04T12:24:43.360Z,0.80
2019-03-04T12:25:43.347Z,2.10
2019-03-04T12:26:43.369Z,1.60
2019-03-04T12:27:43.337Z,2.10
2019-03-04T12:28:43.321Z,2.90
2019-03-04T12:29:43.315Z,1.70
2019-03-04T12:30:43.300Z,0.80
2019-03-04T12:31:43.288Z,1.60
2019-03-04T12:32:43.304Z,0.70
2019-03-04T12:33:43.263Z,1.10
2019-03-04T12:34:43.259Z,1.00
2019-03-04T12:35:43.253Z,0.80
2019-03-04T12:36:45.384Z,1.80
2019-03-04T12:37:43.258Z,1.00
2019-03-04T12:38:43.210Z,1.00
2019-03-04T12:39:43.205Z,1.00
2019-03-04T12:40:43.191Z,1.20
2019-03-04T12:41:43.185Z,1.20
2019-03-04T12:42:43.178Z,1.30
2019-03-04T12:43:43.176Z,1.20
2019-03-04T12:44:43.153Z,1.40
2019-03-04T12:45:43.137Z,1.20
2019-03-04T12:46:43.122Z,1.10
2019-03-04T12:47:43.119Z,1.60
2019-03-04T12:48:43.127Z,1.30
2019-03-04T12:49:43.112Z,2.00
2019-03-04T12:50:43.092Z,0.90
2019-03-04T12:51:43.067Z,1.80
2019-03-04T12:52:43.060Z,2.80
2019-03-04T12:53:43.073Z,2.00
2019-03-04T12:54:43.779Z,1.30
2019-03-04T12:55:43.027Z,2.30
2019-03-04T12:56:43.018Z,0.80
2019-03-04T12:57:43.021Z,1.20
2019-03-04T12:58:43.011Z,1.30
2019-03-04T12:59:42.991Z,1.50
2019-03-04T13:00:43.002Z,2.00
2019-03-04T13:01:42.969Z,1.60
2019-03-04T13:02:42.954Z,1.10
2019-03-04T13:03:42.946Z,1.50
2019-03-04T13:04:42.935Z,1.20
2019-03-04T13:05:42.936Z,1.10
2019-03-04T13:06:42.904Z,2.60
2019-03-04T13:07:42.900Z,1.60
2019-03-04T13:08:42.888Z,1.40
2019-03-04T13:09:42.879Z,1.40
2019-03-04T13:10:42.893Z,1.00
2019-03-04T13:11:42.866Z,1.50
2019-03-04T13:12:42.846Z,1.60
2019-03-04T13:13:42.835Z,2.70
2019-03-04T13:14:42.829Z,1.30
2019-03-04T13:15:42.824Z,2.10
2019-03-04T13:16:42.831Z,2.10
2019-03-04T13:17:42.788Z,2.80
2019-03-04T13:18:42.774Z,2.40